Time;durP1;ratioP1;P1;durP2;ratioP2;P2;SDS_P1;SDS_P2;PMS_P1;PMS_P2;Temp;Humidity;BMP_temperature;BMP_pressure;BME280_temperature;BME280_humidity;BME280_pressure;Samples;Min_cycle;Max_cycle;Signal;HPM_P1;HPM_P2
2023/04/29 00:01:16;;;;;;;41.28;28.60;;;11.00;99.90;;;;;;4982028;28;91264;-75
2023/04/29 00:03:43;;;;;;;41.30;28.42;;;11.00;99.90;;;;;;4999512;28;88641;-75
2023/04/29 00:06:10;;;;;;;41.10;29.13;;;11.00;99.90;;;;;;4997526;28;92234;-75
2023/04/29 00:08:37;;;;;;;47.00;30.83;;;11.10;99.90;;;;;;4999495;28;88947;-75
2023/04/29 00:11:05;;;;;;;45.08;29.25;;;11.10;99.90;;;;;;4998598;28;88891;-76
2023/04/29 00:13:32;;;;;;;42.10;28.98;;;11.20;99.90;;;;;;4999452;28;88755;-75
2023/04/29 00:15:59;;;;;;;42.38;25.17;;;11.20;99.90;;;;;;4981056;28;104313;-75
2023/04/29 00:18:26;;;;;;;42.28;28.15;;;11.20;99.90;;;;;;4999440;28;88819;-75
2023/04/29 00:20:53;;;;;;;36.97;22.50;;;11.10;99.90;;;;;;4998128;28;88537;-75
2023/04/29 00:23:20;;;;;;;35.47;22.60;;;11.10;99.90;;;;;;4998081;28;90512;-75
2023/04/29 00:25:46;;;;;;;36.05;26.30;;;11.10;99.90;;;;;;4998030;28;89507;-76
2023/04/29 00:28:13;;;;;;;42.20;27.65;;;11.10;99.90;;;;;;4999315;28;89219;-75
2023/04/29 00:30:40;;;;;;;42.45;29.50;;;11.10;99.90;;;;;;5015220;28;88536;-75
2023/04/29 00:33:07;;;;;;;45.50;29.77;;;11.10;99.90;;;;;;4997588;28;91222;-75
2023/04/29 00:35:35;;;;;;;47.28;28.15;;;11.10;99.90;;;;;;4981441;28;91772;-75
2023/04/29 00:38:01;;;;;;;36.88;24.08;;;11.10;99.90;;;;;;4997550;28;91649;-76
2023/04/29 00:40:28;;;;;;;29.88;20.73;;;11.10;99.90;;;;;;4997582;28;100589;-75
2023/04/29 00:42:56;;;;;;;44.22;28.92;;;11.00;99.90;;;;;;4997483;28;91703;-75
2023/04/29 00:45:23;;;;;;;44.97;27.92;;;11.00;99.90;;;;;;4997686;28;91353;-75
2023/04/29 00:47:50;;;;;;;40.30;28.42;;;11.10;99.90;;;;;;4997151;28;91855;-75
2023/04/29 00:50:18;;;;;;;42.45;30.48;;;11.10;99.90;;;;;;4997668;28;91084;-75
2023/04/29 00:52:45;;;;;;;37.53;25.40;;;11.10;99.90;;;;;;4998792;28;88681;-75
2023/04/29 00:55:12;;;;;;;40.95;27.73;;;11.00;99.90;;;;;;4997505;28;91946;-75
2023/04/29 00:57:40;;;;;;;39.67;27.00;;;11.00;99.90;;;;;;4964722;28;91537;-75
2023/04/29 01:00:08;;;;;;;38.13;27.02;;;11.00;99.90;;;;;;4997081;28;91052;-75
2023/04/29 01:02:36;;;;;;;39.05;27.33;;;11.00;99.90;;;;;;4998640;28;89453;-75
2023/04/29 01:05:04;;;;;;;41.50;27.67;;;11.00;99.90;;;;;;4997010;28;91278;-75
2023/04/29 01:07:48;;;;;;;39.45;28.40;;;11.10;99.90;;;;;;4998368;28;89126;-75
2023/04/29 01:10:25;;;;;;;39.80;25.42;;;11.10;99.90;;;;;;4997257;28;91061;-75
2023/04/29 01:13:04;;;;;;;39.17;25.77;;;11.10;99.90;;;;;;4980370;28;90336;-75
2023/04/29 01:15:50;;;;;;;34.10;24.48;;;11.10;99.90;;;;;;4997062;28;91677;-75
2023/04/29 01:18:42;;;;;;;41.45;26.23;;;11.10;99.90;;;;;;4997229;28;91379;-75
2023/04/29 01:21:10;;;;;;;37.40;24.83;;;11.10;99.90;;;;;;4992385;28;90700;-75
2023/04/29 01:23:37;;;;;;;36.83;24.77;;;11.00;99.90;;;;;;4998608;28;88540;-75
2023/04/29 01:26:04;;;;;;;35.22;23.75;;;11.00;99.90;;;;;;4996893;28;90297;-75
2023/04/29 01:29:21;;;;;;;37.25;25.88;;;11.00;99.90;;;;;;4983892;28;90595;-75
2023/04/29 01:32:07;;;;;;;33.78;23.35;;;11.00;99.90;;;;;;4996902;28;90973;-75
2023/04/29 01:34:41;;;;;;;38.22;23.42;;;10.90;99.90;;;;;;4998631;28;88884;-75
2023/04/29 01:37:12;;;;;;;34.72;24.13;;;10.90;99.90;;;;;;4996523;28;91333;-75
2023/04/29 01:40:09;;;;;;;34.63;24.23;;;10.90;99.90;;;;;;4996647;28;91453;-75
2023/04/29 01:43:00;;;;;;;39.58;25.05;;;10.90;99.90;;;;;;4996962;28;89088;-75
2023/04/29 01:45:28;;;;;;;33.60;20.15;;;10.90;99.90;;;;;;4980325;28;91001;-75
2023/04/29 01:47:56;;;;;;;35.60;24.45;;;10.80;99.90;;;;;;4996478;28;91992;-75
2023/04/29 01:50:24;;;;;;;36.67;22.52;;;10.90;99.90;;;;;;4996541;28;91154;-75
2023/04/29 01:52:53;;;;;;;38.30;23.63;;;10.90;99.90;;;;;;4980093;28;89459;-75
2023/04/29 01:55:20;;;;;;;33.83;23.02;;;10.90;99.90;;;;;;4996126;28;92237;-75
2023/04/29 01:58:22;;;;;;;40.13;24.00;;;10.90;99.90;;;;;;4990475;28;89250;-75
2023/04/29 02:01:05;;;;;;;33.92;21.77;;;10.80;99.90;;;;;;4995434;28;88557;-76
2023/04/29 02:03:35;;;;;;;33.42;22.83;;;10.80;99.90;;;;;;4980240;28;90836;-75
2023/04/29 02:06:05;;;;;;;34.00;22.67;;;10.90;99.90;;;;;;4995606;28;90252;-75
2023/04/29 02:08:33;;;;;;;31.88;22.52;;;10.90;99.90;;;;;;4996202;28;90151;-75
2023/04/29 02:11:01;;;;;;;34.40;22.48;;;10.80;99.90;;;;;;4996163;28;90963;-75
2023/04/29 02:13:39;;;;;;;37.38;22.17;;;10.90;99.90;;;;;;4981452;28;90869;-75
2023/04/29 02:16:11;;;;;;;37.08;22.33;;;10.90;99.90;;;;;;4979015;28;91455;-75
2023/04/29 02:18:46;;;;;;;31.95;22.02;;;10.90;99.90;;;;;;4996093;28;91692;-75
2023/04/29 02:21:13;;;;;;;33.45;22.85;;;10.90;99.90;;;;;;4979389;28;91505;-75
2023/04/29 02:23:40;;;;;;;34.53;24.58;;;10.90;99.90;;;;;;4995898;28;89323;-75
2023/04/29 02:26:08;;;;;;;33.20;21.15;;;10.90;99.90;;;;;;4995876;28;91327;-75
2023/04/29 02:28:35;;;;;;;31.02;21.13;;;10.90;99.90;;;;;;4979154;28;104849;-75
2023/04/29 02:31:03;;;;;;;33.25;21.48;;;10.90;99.90;;;;;;4995907;28;91328;-75
2023/04/29 02:33:31;;;;;;;36.40;21.83;;;10.90;99.90;;;;;;4996050;28;90981;-75
2023/04/29 02:35:58;;;;;;;37.83;20.70;;;10.90;99.90;;;;;;4979153;28;89811;-75
2023/04/29 02:38:25;;;;;;;28.90;18.95;;;10.90;99.90;;;;;;4979497;28;90422;-75
2023/04/29 02:40:52;;;;;;;30.67;21.13;;;10.90;99.90;;;;;;4996113;28;89119;-75
2023/04/29 02:43:20;;;;;;;28.00;18.63;;;10.90;99.90;;;;;;4979352;28;90030;-75
2023/04/29 02:45:47;;;;;;;30.90;19.23;;;10.80;99.90;;;;;;4979189;28;91872;-75
2023/04/29 02:48:14;;;;;;;32.25;19.17;;;10.80;99.90;;;;;;4995423;28;92037;-75
2023/04/29 02:50:41;;;;;;;31.83;19.75;;;10.80;99.90;;;;;;4997117;28;88422;-75
2023/04/29 02:53:08;;;;;;;27.52;18.58;;;10.80;99.90;;;;;;4995444;28;90647;-75
2023/04/29 02:55:35;;;;;;;32.85;20.02;;;10.80;99.90;;;;;;4995715;28;90896;-75
2023/04/29 02:58:07;;;;;;;32.90;19.92;;;10.80;99.90;;;;;;4995760;28;89293;-75
2023/04/29 03:00:34;;;;;;;31.40;19.58;;;10.80;99.90;;;;;;4996995;28;89022;-75
2023/04/29 03:03:01;;;;;;;32.08;18.27;;;10.80;99.90;;;;;;4995957;28;88572;-75
2023/04/29 03:05:28;;;;;;;32.85;20.63;;;10.80;99.90;;;;;;4995655;28;91417;-75
2023/04/29 03:07:55;;;;;;;32.63;19.98;;;10.80;99.90;;;;;;4978731;28;91795;-75
2023/04/29 03:10:22;;;;;;;31.25;19.00;;;10.80;99.90;;;;;;4995011;28;91465;-75
2023/04/29 03:12:49;;;;;;;30.50;18.48;;;10.70;99.90;;;;;;4995568;28;88381;-75
2023/04/29 03:15:16;;;;;;;27.63;18.38;;;10.70;99.90;;;;;;4995445;28;90997;-75
2023/04/29 03:17:45;;;;;;;26.10;15.43;;;10.70;99.90;;;;;;4995251;28;91976;-75
2023/04/29 03:20:12;;;;;;;26.55;16.85;;;10.60;99.90;;;;;;4978793;28;91243;-75
2023/04/29 03:22:39;;;;;;;27.90;17.88;;;10.70;99.90;;;;;;4979027;28;91108;-75
2023/04/29 03:25:09;;;;;;;29.10;16.38;;;10.70;99.90;;;;;;4978806;28;90599;-75
2023/04/29 03:27:38;;;;;;;32.50;17.42;;;10.70;99.90;;;;;;4995881;28;90782;-75
2023/04/29 03:30:06;;;;;;;23.90;15.65;;;10.70;99.90;;;;;;4998410;28;91430;-75
2023/04/29 03:32:37;;;;;;;18.63;12.93;;;10.60;99.90;;;;;;4983108;28;89159;-75
2023/04/29 03:35:05;;;;;;;30.65;18.17;;;10.60;99.90;;;;;;4998792;28;89669;-75
2023/04/29 03:37:37;;;;;;;30.10;18.00;;;10.60;99.90;;;;;;4983037;28;91134;-75
2023/04/29 03:40:16;;;;;;;29.75;18.75;;;10.60;99.90;;;;;;4983696;28;91608;-75
2023/04/29 03:42:44;;;;;;;26.17;13.82;;;10.60;99.90;;;;;;4982020;28;90677;-75
2023/04/29 03:45:13;;;;;;;28.67;16.88;;;10.50;99.90;;;;;;4999925;28;88781;-75
2023/04/29 03:47:40;;;;;;;25.73;18.27;;;10.50;99.90;;;;;;4998448;28;91761;-76
2023/04/29 03:50:08;;;;;;;28.58;16.52;;;10.50;99.90;;;;;;4999582;28;89096;-75
2023/04/29 03:52:35;;;;;;;32.00;17.55;;;10.40;99.90;;;;;;4982215;28;90429;-75
2023/04/29 03:55:09;;;;;;;26.93;15.60;;;10.50;99.90;;;;;;4998290;28;90117;-75
2023/04/29 03:57:36;;;;;;;22.00;15.25;;;10.40;99.90;;;;;;4998161;28;91381;-75
2023/04/29 04:00:04;;;;;;;26.58;16.83;;;10.30;99.90;;;;;;4981641;28;91449;-75
2023/04/29 04:02:39;;;;;;;27.67;18.65;;;10.40;99.90;;;;;;4997278;28;88587;-75
2023/04/29 04:05:09;;;;;;;29.02;18.25;;;10.30;99.90;;;;;;4998117;28;91131;-75
2023/04/29 04:07:38;;;;;;;22.08;14.15;;;10.30;99.90;;;;;;4981705;28;90178;-75
2023/04/29 04:10:34;;;;;;;27.73;16.75;;;10.30;99.90;;;;;;4980679;28;88813;-76
2023/04/29 04:13:06;;;;;;;25.30;17.50;;;10.30;99.90;;;;;;4998065;28;89686;-75
2023/04/29 04:15:33;;;;;;;31.63;18.35;;;10.30;99.90;;;;;;4997768;28;91413;-75
2023/04/29 04:18:00;;;;;;;26.38;16.08;;;10.30;99.90;;;;;;4998313;28;91765;-75
2023/04/29 04:20:27;;;;;;;28.42;16.45;;;10.30;99.90;;;;;;4981346;28;91503;-75
2023/04/29 04:22:54;;;;;;;28.20;15.80;;;10.30;99.90;;;;;;4981631;28;89765;-75
2023/04/29 04:25:24;;;;;;;29.25;16.45;;;10.30;99.90;;;;;;4981457;28;91577;-75
2023/04/29 04:27:55;;;;;;;25.00;16.30;;;10.30;99.90;;;;;;4981855;28;90983;-75
2023/04/29 04:30:42;;;;;;;28.50;16.70;;;10.30;99.90;;;;;;4998904;28;88950;-75
2023/04/29 04:33:09;;;;;;;26.80;16.42;;;10.30;99.90;;;;;;4981319;28;91038;-75
2023/04/29 04:35:38;;;;;;;22.45;16.50;;;10.30;99.90;;;;;;4997692;28;91137;-75
2023/04/29 04:38:06;;;;;;;25.67;14.43;;;10.30;99.90;;;;;;4997518;28;91742;-75
2023/04/29 04:40:33;;;;;;;24.60;15.02;;;10.30;99.90;;;;;;4997338;28;91382;-75
2023/04/29 04:43:20;;;;;;;25.30;14.65;;;10.30;99.90;;;;;;4980276;28;88610;-75
2023/04/29 04:45:49;;;;;;;22.83;14.98;;;10.30;99.90;;;;;;4981365;28;89246;-75
2023/04/29 04:48:16;;;;;;;24.83;15.02;;;10.20;99.90;;;;;;4997419;28;90700;-75
2023/04/29 04:50:44;;;;;;;26.73;16.38;;;10.30;99.90;;;;;;4997398;28;91352;-75
2023/04/29 04:53:11;;;;;;;30.25;15.48;;;10.20;99.90;;;;;;4997682;28;91138;-75
2023/04/29 04:55:54;;;;;;;27.88;16.25;;;10.30;99.90;;;;;;4983303;28;91074;-75
2023/04/29 04:58:21;;;;;;;26.08;16.60;;;10.30;99.90;;;;;;4997231;28;91973;-75
2023/04/29 05:00:50;;;;;;;25.65;15.48;;;10.30;99.90;;;;;;4997428;28;91419;-76
2023/04/29 05:03:17;;;;;;;24.98;14.10;;;10.30;99.90;;;;;;4980600;28;90737;-75
2023/04/29 05:05:44;;;;;;;25.67;16.00;;;10.30;99.90;;;;;;4980566;28;91296;-75
2023/04/29 05:08:11;;;;;;;26.48;14.98;;;10.20;99.90;;;;;;4981000;28;90834;-76
2023/04/29 05:10:43;;;;;;;19.63;13.98;;;10.30;99.90;;;;;;4981412;28;91344;-75
2023/04/29 05:13:11;;;;;;;24.05;15.65;;;10.30;99.90;;;;;;4997335;28;90359;-75
2023/04/29 05:15:39;;;;;;;28.90;15.80;;;10.30;99.90;;;;;;4996687;28;91670;-75
2023/04/29 05:18:07;;;;;;;26.02;16.75;;;10.30;99.90;;;;;;4997244;28;91561;-75
2023/04/29 05:20:34;;;;;;;28.35;16.42;;;10.40;99.90;;;;;;4996862;28;91394;-75
2023/04/29 05:23:02;;;;;;;22.25;13.80;;;10.40;99.90;;;;;;4997188;28;90900;-75
2023/04/29 05:25:34;;;;;;;22.67;14.00;;;10.40;99.90;;;;;;4981281;28;88792;-75
2023/04/29 05:28:03;;;;;;;17.30;13.00;;;10.40;99.90;;;;;;4997126;28;91830;-75
2023/04/29 05:30:33;;;;;;;19.85;11.88;;;10.40;99.90;;;;;;4980930;28;91122;-75
2023/04/29 05:33:00;;;;;;;24.48;13.40;;;10.40;99.90;;;;;;4997116;28;90795;-75
2023/04/29 05:35:27;;;;;;;24.83;13.80;;;10.40;99.90;;;;;;4980048;28;90139;-75
2023/04/29 05:37:54;;;;;;;19.70;13.10;;;10.50;99.90;;;;;;4998309;28;89286;-75
2023/04/29 05:40:33;;;;;;;23.13;14.32;;;10.50;99.90;;;;;;4981510;28;90200;-75
2023/04/29 05:43:33;;;;;;;19.27;12.95;;;10.50;99.90;;;;;;4996228;28;88638;-75
2023/04/29 05:46:00;;;;;;;19.77;13.65;;;10.50;99.90;;;;;;4996772;28;91221;-75
2023/04/29 05:48:28;;;;;;;23.58;14.32;;;10.60;99.90;;;;;;4996343;28;91865;-75
2023/04/29 05:50:55;;;;;;;20.10;13.43;;;10.60;99.90;;;;;;4995520;28;91296;-76
2023/04/29 05:53:23;;;;;;;21.38;13.27;;;10.60;99.90;;;;;;4996396;28;89883;-75
2023/04/29 05:55:50;;;;;;;20.20;12.68;;;10.60;99.90;;;;;;4980259;28;91159;-75
2023/04/29 05:58:19;;;;;;;23.30;14.60;;;10.60;99.90;;;;;;4996491;28;91363;-75
2023/04/29 06:00:48;;;;;;;21.35;14.52;;;10.60;99.90;;;;;;4979774;28;91278;-75
2023/04/29 06:03:20;;;;;;;23.83;14.52;;;10.70;99.90;;;;;;4996406;28;90964;-75
2023/04/29 06:05:52;;;;;;;21.83;13.75;;;10.70;99.90;;;;;;4996051;28;91876;-75
2023/04/29 06:08:38;;;;;;;17.85;13.70;;;10.80;99.90;;;;;;4982250;28;91732;-75
2023/04/29 06:11:19;;;;;;;26.35;15.93;;;10.90;99.90;;;;;;4996344;28;91433;-75
2023/04/29 06:13:46;;;;;;;20.42;12.38;;;10.90;99.90;;;;;;4996197;28;90914;-75
2023/04/29 06:16:13;;;;;;;20.73;13.65;;;11.00;99.90;;;;;;4996139;28;91312;-75
2023/04/29 06:18:40;;;;;;;22.40;14.35;;;11.00;99.90;;;;;;4995903;28;92054;-75
2023/04/29 06:21:07;;;;;;;24.73;13.48;;;11.10;99.90;;;;;;4979618;28;91371;-75
2023/04/29 06:23:35;;;;;;;24.20;14.85;;;11.10;99.90;;;;;;4979987;28;91235;-75
2023/04/29 06:26:07;;;;;;;20.42;13.75;;;11.20;99.90;;;;;;4996067;28;89735;-75
2023/04/29 06:28:34;;;;;;;18.23;13.68;;;11.30;99.90;;;;;;4997266;28;89276;-75
2023/04/29 06:31:01;;;;;;;21.27;12.80;;;11.40;99.90;;;;;;4995912;28;91348;-75
2023/04/29 06:33:30;;;;;;;20.83;13.70;;;11.40;99.90;;;;;;4995752;28;91082;-75
2023/04/29 06:35:56;;;;;;;23.92;13.50;;;11.60;99.90;;;;;;4979607;28;90912;-75
2023/04/29 06:38:38;;;;;;;21.65;13.70;;;11.70;99.90;;;;;;4995525;28;88610;-75
2023/04/29 06:41:32;;;;;;;17.15;13.52;;;11.80;99.90;;;;;;4995693;28;90315;-75
2023/04/29 06:44:18;;;;;;;17.45;12.20;;;12.00;99.90;;;;;;4995015;28;88386;-75
2023/04/29 06:47:05;;;;;;;16.77;11.38;;;12.30;99.90;;;;;;4996896;28;88582;-75
2023/04/29 06:49:44;;;;;;;14.77;9.57;;;12.50;99.90;;;;;;4980646;28;92150;-75
2023/04/29 06:52:11;;;;;;;15.05;10.07;;;12.70;99.90;;;;;;4980457;28;88719;-75
2023/04/29 06:54:38;;;;;;;15.40;10.93;;;12.80;99.90;;;;;;4995292;28;91133;-75
2023/04/29 06:57:05;;;;;;;13.80;9.57;;;13.00;99.90;;;;;;4995459;28;92352;-75
2023/04/29 06:59:32;;;;;;;13.57;9.10;;;13.10;99.90;;;;;;4996020;28;92241;-75
2023/04/29 07:02:02;;;;;;;15.25;9.50;;;13.10;99.90;;;;;;4980390;28;89091;-75
2023/04/29 07:04:30;;;;;;;16.08;10.52;;;13.10;99.90;;;;;;4996560;28;88572;-75
2023/04/29 07:06:58;;;;;;;11.43;7.75;;;13.20;99.90;;;;;;4994964;28;91490;-75
2023/04/29 07:09:26;;;;;;;13.00;9.60;;;13.30;99.90;;;;;;4980002;28;91188;-75
2023/04/29 07:11:53;;;;;;;12.68;8.73;;;13.40;99.90;;;;;;4997519;28;88025;-75
2023/04/29 07:14:23;;;;;;;12.68;9.70;;;13.40;99.90;;;;;;4996804;28;87416;-75
2023/04/29 07:16:54;;;;;;;14.88;8.63;;;13.40;99.90;;;;;;4997367;28;88040;-75
2023/04/29 07:19:21;;;;;;;10.88;8.75;;;13.70;99.90;;;;;;4995976;28;91242;-75
2023/04/29 07:21:48;;;;;;;14.50;8.20;;;13.80;99.90;;;;;;4995762;28;89569;-75
2023/04/29 07:24:15;;;;;;;12.20;9.52;;;13.90;99.90;;;;;;4996017;28;91514;-75
2023/04/29 07:26:45;;;;;;;11.55;8.63;;;14.10;99.90;;;;;;4995770;28;90827;-75
2023/04/29 07:29:14;;;;;;;10.57;8.70;;;14.30;99.90;;;;;;4996028;28;91061;-75
2023/04/29 07:31:41;;;;;;;10.55;9.02;;;14.50;99.90;;;;;;4995813;28;89139;-75
2023/04/29 07:34:08;;;;;;;12.45;8.68;;;14.90;99.90;;;;;;4979607;28;90579;-76
2023/04/29 07:36:35;;;;;;;8.13;7.20;;;15.20;99.90;;;;;;4995855;28;91306;-75
2023/04/29 07:39:03;;;;;;;10.93;8.20;;;15.30;99.90;;;;;;4996512;28;90060;-75
2023/04/29 07:41:30;;;;;;;10.68;8.52;;;15.40;99.90;;;;;;4979663;28;89131;-75
2023/04/29 07:43:58;;;;;;;10.18;7.93;;;15.70;99.90;;;;;;4979318;28;90731;-76
2023/04/29 07:46:24;;;;;;;10.88;8.25;;;15.80;99.90;;;;;;4995406;28;91774;-75
2023/04/29 07:48:52;;;;;;;10.00;7.03;;;15.90;99.90;;;;;;4995565;28;91948;-75
2023/04/29 07:51:19;;;;;;;9.73;7.70;;;16.10;99.70;;;;;;4995817;28;89253;-76
2023/04/29 07:53:46;;;;;;;10.00;7.35;;;16.50;99.90;;;;;;4979180;28;91302;-75
2023/04/29 07:56:13;;;;;;;9.68;8.00;;;17.00;99.20;;;;;;4997191;28;88674;-76
2023/04/29 07:58:40;;;;;;;9.38;7.03;;;17.60;98.20;;;;;;4995454;28;91447;-76
2023/04/29 08:01:14;;;;;;;10.35;8.45;;;18.10;98.00;;;;;;4995446;28;89237;-76
2023/04/29 08:03:41;;;;;;;7.85;7.15;;;18.90;96.80;;;;;;4995793;28;91018;-76
2023/04/29 08:06:10;;;;;;;8.45;7.65;;;19.30;96.00;;;;;;4995196;28;91173;-75
2023/04/29 08:08:40;;;;;;;8.85;7.93;;;19.50;94.30;;;;;;4979397;28;89527;-76
2023/04/29 08:11:14;;;;;;;10.00;7.03;;;19.60;93.80;;;;;;4996597;28;88726;-76
2023/04/29 08:13:41;;;;;;;8.35;7.50;;;19.80;93.00;;;;;;4997298;28;87997;-76
2023/04/29 08:16:08;;;;;;;8.35;7.50;;;20.00;92.80;;;;;;4982458;28;91571;-76
2023/04/29 08:18:35;;;;;;;8.20;7.50;;;20.40;92.80;;;;;;4998925;28;91233;-76
2023/04/29 08:21:02;;;;;;;7.72;6.93;;;20.90;92.00;;;;;;4982095;28;89737;-76
2023/04/29 08:23:30;;;;;;;7.72;6.97;;;21.10;90.50;;;;;;4998944;28;88120;-76
2023/04/29 08:25:58;;;;;;;7.70;6.78;;;20.90;89.40;;;;;;4999915;28;88869;-76
2023/04/29 08:28:25;;;;;;;7.65;6.85;;;20.70;88.50;;;;;;4999077;28;91196;-76
2023/04/29 08:30:56;;;;;;;8.50;7.63;;;20.60;89.30;;;;;;4981996;28;89220;-76
2023/04/29 08:33:23;;;;;;;7.60;6.90;;;20.50;89.20;;;;;;4998871;28;88426;-76
2023/04/29 08:35:58;;;;;;;7.32;6.25;;;19.90;90.10;;;;;;4965216;28;92220;-76
2023/04/29 08:38:25;;;;;;;7.57;6.47;;;19.80;88.90;;;;;;5000053;28;89400;-76
2023/04/29 08:40:51;;;;;;;7.70;6.50;;;19.40;90.00;;;;;;4998572;28;88008;-76
2023/04/29 08:43:20;;;;;;;8.43;6.68;;;19.20;90.50;;;;;;5000022;28;88362;-76
2023/04/29 08:45:50;;;;;;;6.78;6.13;;;19.40;90.10;;;;;;4998464;28;88823;-76
2023/04/29 08:48:18;;;;;;;6.72;5.95;;;19.50;89.30;;;;;;4999948;28;88513;-76
2023/04/29 08:50:45;;;;;;;8.15;5.72;;;19.40;89.20;;;;;;4999894;28;88192;-76
2023/04/29 08:53:13;;;;;;;10.77;6.13;;;19.40;89.00;;;;;;4998764;28;88586;-76
2023/04/29 08:55:45;;;;;;;7.32;6.50;;;19.10;90.00;;;;;;4998385;28;89465;-76
2023/04/29 08:58:13;;;;;;;6.10;5.53;;;19.00;89.60;;;;;;4999706;28;89381;-76
2023/04/29 09:00:44;;;;;;;6.90;6.20;;;18.50;88.80;;;;;;4998013;28;88843;-76
2023/04/29 09:03:14;;;;;;;8.00;6.15;;;18.20;91.10;;;;;;4997883;28;91310;-76
2023/04/29 09:05:44;;;;;;;7.22;5.88;;;17.90;91.40;;;;;;4997559;28;92278;-76
2023/04/29 09:08:11;;;;;;;7.13;5.93;;;17.50;91.80;;;;;;4997986;28;89246;-75
2023/04/29 09:10:41;;;;;;;7.72;6.57;;;17.30;92.70;;;;;;4998008;28;89489;-76
2023/04/29 09:13:21;;;;;;;7.05;6.40;;;17.00;92.40;;;;;;4997930;28;88274;-75
2023/04/29 09:15:48;;;;;;;7.72;6.10;;;16.60;92.80;;;;;;4983622;28;88955;-76
2023/04/29 09:18:50;;;;;;;6.05;5.45;;;16.30;93.80;;;;;;4999529;28;88430;-75
2023/04/29 09:21:22;;;;;;;7.78;6.55;;;16.20;94.00;;;;;;4999622;28;88617;-76
2023/04/29 09:23:55;;;;;;;6.65;5.78;;;16.00;94.70;;;;;;4999249;28;88644;-75
2023/04/29 09:26:23;;;;;;;8.70;6.80;;;15.90;95.10;;;;;;4998913;28;89695;-76
2023/04/29 09:29:17;;;;;;;10.52;6.97;;;15.80;95.20;;;;;;4999013;28;95253;-75
2023/04/29 09:31:44;;;;;;;9.25;7.47;;;15.80;95.40;;;;;;4999182;28;88050;-76
2023/04/29 09:34:13;;;;;;;7.75;6.40;;;15.50;95.70;;;;;;4998871;28;88431;-76
2023/04/29 09:36:45;;;;;;;8.27;6.72;;;15.50;96.30;;;;;;4998757;28;94342;-76
2023/04/29 09:39:17;;;;;;;10.07;7.00;;;15.60;96.20;;;;;;4998834;28;88584;-76
2023/04/29 09:41:53;;;;;;;8.70;7.07;;;15.60;96.30;;;;;;4999266;28;88298;-75
2023/04/29 09:44:30;;;;;;;8.18;6.78;;;15.60;95.80;;;;;;4997972;28;88652;-75
2023/04/29 09:47:01;;;;;;;11.57;6.85;;;15.50;96.30;;;;;;4998709;28;88851;-76
2023/04/29 09:49:36;;;;;;;12.13;6.15;;;15.50;96.70;;;;;;4998459;28;88080;-76
2023/04/29 09:52:04;;;;;;;10.05;8.30;;;15.60;96.80;;;;;;4997379;28;89279;-76
2023/04/29 09:54:33;;;;;;;11.15;7.28;;;15.60;97.00;;;;;;4997277;28;90970;-76
2023/04/29 09:57:01;;;;;;;9.80;7.55;;;15.70;96.40;;;;;;4980852;28;88840;-76
2023/04/29 09:59:28;;;;;;;7.57;6.10;;;15.80;97.00;;;;;;4997420;28;88699;-76
2023/04/29 10:01:57;;;;;;;8.05;5.95;;;15.90;95.60;;;;;;4998512;28;87978;-75
2023/04/29 10:04:25;;;;;;;8.48;6.93;;;15.90;95.90;;;;;;4996825;28;102939;-76
2023/04/29 10:06:54;;;;;;;7.80;6.95;;;16.00;95.70;;;;;;4998527;28;88955;-76
2023/04/29 10:09:22;;;;;;;9.30;6.72;;;15.90;95.60;;;;;;4997333;28;90996;-76
2023/04/29 10:11:52;;;;;;;13.50;8.18;;;15.90;95.80;;;;;;4997343;28;89152;-76
2023/04/29 10:14:20;;;;;;;7.72;6.55;;;15.90;96.00;;;;;;4998120;28;88076;-76
2023/04/29 10:17:02;;;;;;;9.15;7.80;;;16.00;95.30;;;;;;4996752;28;92013;-76
2023/04/29 10:19:36;;;;;;;10.60;8.55;;;16.00;95.50;;;;;;4996979;28;89266;-76
2023/04/29 10:22:08;;;;;;;9.88;7.25;;;16.00;95.70;;;;;;4996941;28;89704;-76
2023/04/29 10:24:37;;;;;;;8.87;7.27;;;15.90;95.60;;;;;;4997314;28;88160;-76
2023/04/29 10:27:11;;;;;;;7.50;5.88;;;15.90;95.80;;;;;;4996719;28;91297;-76
2023/04/29 10:29:38;;;;;;;;;;;15.90;95.10;;;;;;4998996;28;88705;-76
2023/04/29 10:32:11;;;;;;;10.48;5.88;;;15.80;95.20;;;;;;4999314;28;88732;-76
2023/04/29 10:34:39;;;;;;;10.18;6.78;;;15.90;95.50;;;;;;4997208;28;89410;-76
2023/04/29 10:37:11;;;;;;;8.90;6.60;;;15.90;95.70;;;;;;4997439;28;88006;-75
2023/04/29 10:40:04;;;;;;;6.15;5.30;;;15.90;95.30;;;;;;4996883;28;90491;-76
2023/04/29 10:42:45;;;;;;;9.43;6.13;;;15.90;94.80;;;;;;4997938;28;88661;-76
2023/04/29 10:45:26;;;;;;;6.68;5.90;;;15.90;95.00;;;;;;4996756;28;88420;-76
2023/04/29 10:48:05;;;;;;;5.95;5.10;;;15.90;95.20;;;;;;4996899;28;88751;-76
2023/04/29 10:50:33;;;;;;;10.38;6.05;;;15.90;95.60;;;;;;4996547;28;91303;-76
2023/04/29 10:53:04;;;;;;;7.60;5.70;;;15.80;95.30;;;;;;4997853;28;88104;-76
2023/04/29 10:55:36;;;;;;;7.50;5.63;;;15.80;94.80;;;;;;4998164;28;88082;-76
2023/04/29 10:58:04;;;;;;;7.63;4.85;;;15.90;94.60;;;;;;4996098;28;91548;-75
2023/04/29 11:00:33;;;;;;;5.70;5.07;;;16.00;93.10;;;;;;4998217;28;88685;-75
2023/04/29 11:03:03;;;;;;;7.60;5.75;;;15.90;93.10;;;;;;4997826;28;87971;-76
2023/04/29 11:05:34;;;;;;;5.97;4.45;;;15.90;93.10;;;;;;4998024;28;88434;-76
2023/04/29 11:08:23;;;;;;;5.15;4.30;;;15.90;92.30;;;;;;4997412;28;89428;-75
2023/04/29 11:10:59;;;;;;;7.10;5.32;;;15.90;92.90;;;;;;4997207;28;90905;-76
2023/04/29 11:13:28;;;;;;;9.90;5.20;;;15.90;92.50;;;;;;4996002;28;89511;-76
2023/04/29 11:16:06;;;;;;;7.97;6.03;;;15.90;92.90;;;;;;4996141;28;89333;-75
2023/04/29 11:18:35;;;;;;;8.45;5.70;;;16.00;92.70;;;;;;4997718;28;88892;-75
2023/04/29 11:21:05;;;;;;;7.30;5.22;;;15.90;93.20;;;;;;4997427;28;88713;-76
2023/04/29 11:23:36;;;;;;;6.03;4.90;;;16.00;92.00;;;;;;4996216;28;89358;-76
2023/04/29 11:26:03;;;;;;;8.60;5.35;;;16.00;92.20;;;;;;4996570;28;87434;-76
2023/04/29 11:28:31;;;;;;;5.95;4.45;;;16.00;92.40;;;;;;4996199;28;91761;-76
2023/04/29 11:30:59;;;;;;;6.90;5.43;;;15.90;91.90;;;;;;4995974;28;88149;-75
2023/04/29 11:33:27;;;;;;;8.13;5.82;;;16.00;92.00;;;;;;4996893;28;88738;-76
2023/04/29 11:35:54;;;;;;;6.25;4.78;;;16.00;92.20;;;;;;4979754;28;89626;-75
2023/04/29 11:38:29;;;;;;;9.40;5.40;;;16.00;91.60;;;;;;4979025;28;91356;-75
2023/04/29 11:40:57;;;;;;;7.50;5.68;;;16.20;92.70;;;;;;4997200;28;88625;-76
2023/04/29 11:43:24;;;;;;;5.85;4.68;;;16.10;92.90;;;;;;4979250;28;87958;-76
2023/04/29 11:45:52;;;;;;;7.85;4.32;;;16.20;92.80;;;;;;4995813;28;89442;-76
2023/04/29 11:48:24;;;;;;;4.82;4.40;;;16.10;93.00;;;;;;4997328;28;88650;-76
2023/04/29 11:50:56;;;;;;;8.38;5.15;;;16.10;92.70;;;;;;4999581;28;91450;-75
2023/04/29 11:53:24;;;;;;;8.55;5.70;;;16.10;92.60;;;;;;5000814;28;88870;-75
2023/04/29 11:55:55;;;;;;;5.53;4.70;;;16.20;93.40;;;;;;4983144;28;88126;-75
2023/04/29 11:58:23;;;;;;;5.80;4.55;;;16.40;93.80;;;;;;4982193;28;91086;-76
2023/04/29 12:00:50;;;;;;;4.85;4.25;;;16.40;93.30;;;;;;5000419;28;89259;-75
2023/04/29 12:03:19;;;;;;;7.22;4.30;;;16.40;92.10;;;;;;5000368;28;87990;-76
2023/04/29 12:05:49;;;;;;;5.70;4.70;;;16.40;92.10;;;;;;4998565;28;103861;-76
2023/04/29 12:08:24;;;;;;;7.40;4.93;;;16.30;92.00;;;;;;5000138;28;88937;-75
2023/04/29 12:10:52;;;;;;;6.47;5.25;;;16.40;91.90;;;;;;4999548;28;89670;-75
2023/04/29 12:13:22;;;;;;;6.28;4.60;;;16.30;92.20;;;;;;5000254;28;88089;-75
2023/04/29 12:15:50;;;;;;;8.95;4.88;;;16.20;91.70;;;;;;4999185;28;89983;-76
2023/04/29 12:18:18;;;;;;;5.45;4.20;;;16.30;91.70;;;;;;4998628;28;90727;-75
2023/04/29 12:20:47;;;;;;;5.05;4.25;;;16.20;91.00;;;;;;5000099;28;88542;-76
2023/04/29 12:23:17;;;;;;;4.85;3.38;;;16.20;91.20;;;;;;4999660;28;88712;-75
2023/04/29 12:25:56;;;;;;;4.40;3.20;;;16.20;89.80;;;;;;4998867;28;88381;-75
2023/04/29 12:28:24;;;;;;;2.95;2.40;;;16.20;88.80;;;;;;5000102;28;89096;-76
2023/04/29 12:30:53;;;;;;;4.88;2.70;;;16.10;88.60;;;;;;4998678;28;89728;-76
2023/04/29 12:33:27;;;;;;;3.15;2.83;;;16.20;89.10;;;;;;4998411;28;88062;-76
2023/04/29 12:35:56;;;;;;;4.18;2.80;;;16.30;89.10;;;;;;5000122;28;88493;-75
2023/04/29 12:38:29;;;;;;;3.33;2.42;;;16.30;90.00;;;;;;4998254;28;91375;-76
2023/04/29 12:40:59;;;;;;;3.20;3.00;;;16.30;87.30;;;;;;4976901;28;91280;-75
2023/04/29 12:43:35;;;;;;;3.97;2.30;;;16.20;87.70;;;;;;4990177;28;88026;-76
2023/04/29 12:46:09;;;;;;;6.07;3.67;;;16.10;87.50;;;;;;4998529;28;91503;-76
2023/04/29 12:48:37;;;;;;;3.50;3.20;;;16.20;88.20;;;;;;4998004;28;89492;-76
2023/04/29 12:51:08;;;;;;;3.58;3.08;;;16.20;87.80;;;;;;4999713;28;89363;-76
2023/04/29 12:53:35;;;;;;;5.03;4.00;;;16.20;88.10;;;;;;4999465;28;87981;-76